createdAt,value
2017-09-19T00:01:24.248Z,11.53
2017-09-19T00:03:51.064Z,11.67
2017-09-19T00:06:17.888Z,10.53
2017-09-19T00:08:44.731Z,12.50
2017-09-19T00:11:11.536Z,9.40
2017-09-19T00:13:38.660Z,8.67
2017-09-19T00:16:05.480Z,8.60
2017-09-19T00:18:32.304Z,10.40
2017-09-19T00:20:59.392Z,10.73
2017-09-19T00:23:26.543Z,10.53
2017-09-19T00:25:53.591Z,10.13
2017-09-19T00:28:20.428Z,14.30
2017-09-19T00:30:47.268Z,11.83
2017-09-19T00:33:14.320Z,10.53
2017-09-19T00:35:41.148Z,12.63
2017-09-19T00:38:07.971Z,11.10
2017-09-19T00:40:35.059Z,9.80
2017-09-19T00:43:01.877Z,9.23
2017-09-19T00:45:28.705Z,14.57
2017-09-19T00:47:55.548Z,9.57
2017-09-19T00:50:22.345Z,12.10
2017-09-19T00:52:49.484Z,11.93
2017-09-19T00:55:16.312Z,11.40
2017-09-19T00:57:43.368Z,14.80
2017-09-19T01:00:10.520Z,10.07
2017-09-19T01:02:37.340Z,12.60
2017-09-19T01:05:04.413Z,19.87
2017-09-19T01:07:31.560Z,20.07
2017-09-19T01:09:58.392Z,12.70
2017-09-19T01:12:25.234Z,13.23
2017-09-19T01:14:52.065Z,10.70
2017-09-19T01:17:19.239Z,12.17
2017-09-19T01:19:46.087Z,13.60
2017-09-19T01:22:13.244Z,11.77
2017-09-19T01:24:40.076Z,15.30
2017-09-19T01:27:06.912Z,11.87
2017-09-19T01:29:33.801Z,12.50
2017-09-19T01:32:00.636Z,14.07
2017-09-19T01:34:27.466Z,11.90
2017-09-19T01:36:54.332Z,14.40
2017-09-19T01:39:21.161Z,12.97
2017-09-19T01:41:48.288Z,13.93
2017-09-19T01:44:15.140Z,17.53
2017-09-19T01:46:41.952Z,17.97
2017-09-19T01:49:08.987Z,19.57
2017-09-19T01:51:35.860Z,19.20
2017-09-19T01:54:02.688Z,17.70
2017-09-19T01:56:29.752Z,12.90
2017-09-19T01:58:56.580Z,15.67
2017-09-19T02:01:23.648Z,18.73
2017-09-19T02:03:50.691Z,23.60
2017-09-19T02:06:17.572Z,10.93
2017-09-19T02:08:44.375Z,16.03
2017-09-19T02:11:11.428Z,17.60
2017-09-19T02:13:38.252Z,11.83
2017-09-19T02:16:05.059Z,18.07
2017-09-19T02:18:31.892Z,24.50
2017-09-19T02:20:59.008Z,14.70
2017-09-19T02:23:25.842Z,21.97
2017-09-19T02:25:53.013Z,20.57
2017-09-19T02:28:19.836Z,19.60
2017-09-19T02:30:46.668Z,20.83
2017-09-19T02:33:13.837Z,24.33
2017-09-19T02:35:40.708Z,22.20
2017-09-19T02:38:07.832Z,16.83
2017-09-19T02:40:34.631Z,18.40
2017-09-19T02:43:01.472Z,18.70
2017-09-19T02:45:28.304Z,17.37
2017-09-19T02:47:55.406Z,17.23
2017-09-19T02:50:22.557Z,23.30
2017-09-19T02:52:49.712Z,22.03
2017-09-19T02:55:16.551Z,25.80
2017-09-19T02:57:43.604Z,35.17
2017-09-19T03:00:10.676Z,17.83
2017-09-19T03:02:37.801Z,19.70
2017-09-19T03:05:04.643Z,17.60
2017-09-19T03:07:31.477Z,19.10
2017-09-19T03:09:58.636Z,30.13
2017-09-19T03:12:25.780Z,19.33
2017-09-19T03:14:52.828Z,23.57
2017-09-19T03:17:19.881Z,25.27
2017-09-19T03:19:46.720Z,31.83
2017-09-19T03:22:13.554Z,23.63
2017-09-19T03:24:40.618Z,23.67
2017-09-19T03:27:07.469Z,41.23
2017-09-19T03:29:34.608Z,37.53
2017-09-19T03:32:01.475Z,48.83
2017-09-19T03:34:28.607Z,32.03
2017-09-19T03:36:55.429Z,35.93
2017-09-19T03:39:22.256Z,22.60
2017-09-19T03:41:49.092Z,35.77
2017-09-19T03:44:16.180Z,35.27
2017-09-19T03:46:43.012Z,32.03
2017-09-19T03:49:10.123Z,49.40
2017-09-19T03:51:37.169Z,42.03
2017-09-19T03:54:04.024Z,36.73
2017-09-19T03:56:30.865Z,40.80
2017-09-19T03:58:57.701Z,23.10
2017-09-19T04:01:24.567Z,40.27
2017-09-19T04:03:51.635Z,26.87
2017-09-19T04:06:18.691Z,32.20
2017-09-19T04:08:45.760Z,42.13
2017-09-19T04:11:12.628Z,21.27
2017-09-19T04:13:39.725Z,30.17
2017-09-19T04:16:06.875Z,36.57
2017-09-19T04:18:33.732Z,28.80
2017-09-19T04:21:00.767Z,35.80
2017-09-19T04:23:27.576Z,38.80
2017-09-19T04:25:54.409Z,47.20
2017-09-19T04:28:21.236Z,31.90
2017-09-19T04:30:48.344Z,44.27
2017-09-19T04:33:15.213Z,39.10
2017-09-19T04:35:42.267Z,38.07
2017-09-19T04:38:09.394Z,41.70
2017-09-19T04:40:36.224Z,45.23
2017-09-19T04:43:03.056Z,33.43
2017-09-19T04:45:29.924Z,47.67
2017-09-19T04:47:57.073Z,48.53
2017-09-19T04:50:23.935Z,54.37
2017-09-19T04:52:50.955Z,62.17
2017-09-19T04:55:17.812Z,41.93
2017-09-19T04:57:44.616Z,49.00
2017-09-19T05:00:11.444Z,60.13
2017-09-19T05:02:38.320Z,47.83
2017-09-19T05:05:05.145Z,31.57
2017-09-19T05:07:31.954Z,53.43
2017-09-19T05:09:58.780Z,51.40
2017-09-19T05:12:25.909Z,48.20
2017-09-19T05:14:52.745Z,57.23
2017-09-19T05:17:19.572Z,43.77
2017-09-19T05:19:46.408Z,63.47
2017-09-19T05:22:13.488Z,47.37
2017-09-19T05:24:40.340Z,35.93
2017-09-19T05:27:07.165Z,48.30
2017-09-19T05:29:33.992Z,61.30
2017-09-19T05:32:01.168Z,66.63
2017-09-19T05:34:28.291Z,44.03
2017-09-19T05:36:55.575Z,75.37
2017-09-19T05:39:22.398Z,44.23
2017-09-19T05:41:49.565Z,59.63
2017-09-19T05:44:16.399Z,88.57
2017-09-19T05:46:43.224Z,61.60
2017-09-19T05:49:10.031Z,54.63
2017-09-19T05:51:36.854Z,75.27
2017-09-19T05:54:03.683Z,85.60
2017-09-19T05:56:30.502Z,82.53
2017-09-19T05:58:57.564Z,30.93
2017-09-19T06:01:24.712Z,46.27
2017-09-19T06:03:51.537Z,59.13
2017-09-19T06:06:18.340Z,34.93
2017-09-19T06:08:51.100Z,33.93
2017-09-19T06:11:17.937Z,39.43
2017-09-19T06:13:45.082Z,72.83
2017-09-19T06:16:12.238Z,44.33
2017-09-19T06:18:39.032Z,53.13
2017-09-19T06:21:06.124Z,39.57
2017-09-19T06:23:32.996Z,62.67
2017-09-19T06:25:59.836Z,51.87
2017-09-19T06:28:26.957Z,34.03
2017-09-19T06:30:54.112Z,45.97
2017-09-19T06:33:20.911Z,45.33
2017-09-19T06:35:47.747Z,46.70
2017-09-19T06:38:14.837Z,43.47
2017-09-19T06:40:41.992Z,51.73
2017-09-19T06:43:09.036Z,70.07
2017-09-19T06:45:35.900Z,94.03
2017-09-19T06:48:02.710Z,54.17
2017-09-19T06:50:29.540Z,103.27
2017-09-19T06:52:56.721Z,122.10
2017-09-19T06:55:23.528Z,151.50
2017-09-19T06:57:50.368Z,253.07
2017-09-19T07:00:17.216Z,80.77
2017-09-19T07:02:44.037Z,49.50
2017-09-19T07:05:10.924Z,60.00
2017-09-19T07:07:37.772Z,36.27
2017-09-19T07:10:04.582Z,52.13
2017-09-19T07:12:31.402Z,81.00
2017-09-19T07:14:58.508Z,39.60
2017-09-19T07:17:25.561Z,51.83
2017-09-19T07:19:52.368Z,59.33
2017-09-19T07:22:19.200Z,51.47
2017-09-19T07:24:46.292Z,103.23
2017-09-19T07:27:13.115Z,138.43
2017-09-19T07:29:39.954Z,51.20
2017-09-19T07:32:06.803Z,38.23
2017-09-19T07:34:33.600Z,113.97
2017-09-19T07:37:00.712Z,55.20
2017-09-19T07:39:27.557Z,43.73
2017-09-19T07:41:54.370Z,68.83
2017-09-19T07:44:21.221Z,40.03
2017-09-19T07:46:48.056Z,123.30
2017-09-19T07:49:14.880Z,49.10
2017-09-19T07:51:41.737Z,60.07
2017-09-19T07:54:08.576Z,47.47
2017-09-19T07:56:35.660Z,86.23
2017-09-19T07:59:02.820Z,51.73
2017-09-19T08:01:29.960Z,54.63
2017-09-19T08:03:56.800Z,45.07
2017-09-19T08:06:23.951Z,49.23
2017-09-19T08:08:50.785Z,49.57
2017-09-19T08:11:17.608Z,48.53
2017-09-19T08:13:44.463Z,47.90
2017-09-19T08:16:11.260Z,51.80
2017-09-19T08:18:38.072Z,53.27
2017-09-19T08:21:04.924Z,61.40
2017-09-19T08:23:31.766Z,50.30
2017-09-19T08:25:58.799Z,50.67
2017-09-19T08:28:25.957Z,48.50
2017-09-19T08:30:53.266Z,47.40
2017-09-19T08:33:20.081Z,43.40
2017-09-19T08:35:46.912Z,44.53
2017-09-19T08:38:13.804Z,39.53
2017-09-19T08:40:40.640Z,49.33
2017-09-19T08:43:07.516Z,54.30
2017-09-19T08:45:34.353Z,49.93
2017-09-19T08:48:01.177Z,50.93
2017-09-19T08:50:28.372Z,55.67
2017-09-19T08:52:55.550Z,51.77
2017-09-19T08:55:22.348Z,52.07
2017-09-19T08:57:49.253Z,51.67
2017-09-19T09:00:16.232Z,51.63
2017-09-19T09:02:43.174Z,45.63
2017-09-19T09:05:10.025Z,56.23
2017-09-19T09:07:37.081Z,51.90
2017-09-19T09:10:04.228Z,46.87
2017-09-19T09:12:31.388Z,50.07
2017-09-19T09:14:58.305Z,59.63
2017-09-19T09:17:25.377Z,59.03
2017-09-19T09:19:52.277Z,51.30
2017-09-19T09:22:19.369Z,49.90
2017-09-19T09:24:46.530Z,49.57
2017-09-19T09:27:13.380Z,57.30
2017-09-19T09:29:40.233Z,59.80
2017-09-19T09:32:07.072Z,57.63
2017-09-19T09:34:33.924Z,48.57
2017-09-19T09:37:00.760Z,59.83
2017-09-19T09:39:27.606Z,53.13
2017-09-19T09:41:54.724Z,68.47
2017-09-19T09:44:22.140Z,51.33
2017-09-19T09:46:48.972Z,59.17
2017-09-19T09:49:15.828Z,51.77
2017-09-19T09:51:43.016Z,48.20
2017-09-19T09:54:10.012Z,49.13
2017-09-19T09:56:36.959Z,43.00
2017-09-19T09:59:03.800Z,43.73
2017-09-19T10:01:31.265Z,39.50
2017-09-19T10:03:58.132Z,42.80
2017-09-19T10:06:24.969Z,48.07
2017-09-19T10:08:51.768Z,47.93
2017-09-19T10:11:18.624Z,36.17
2017-09-19T10:13:45.433Z,43.40
2017-09-19T10:16:12.572Z,37.27
2017-09-19T10:18:39.434Z,41.87
2017-09-19T10:21:06.271Z,39.37
2017-09-19T10:23:33.092Z,39.93
2017-09-19T10:25:59.936Z,32.87
2017-09-19T10:28:26.793Z,39.17
2017-09-19T10:30:54.049Z,34.50
2017-09-19T10:33:20.888Z,33.00
2017-09-19T10:35:47.739Z,29.80
2017-09-19T10:38:14.884Z,31.10
2017-09-19T10:40:41.711Z,34.93
2017-09-19T10:43:08.875Z,35.10
2017-09-19T10:45:35.676Z,34.50
2017-09-19T10:48:02.801Z,29.30
2017-09-19T10:50:29.616Z,32.90
2017-09-19T10:52:56.477Z,29.73
2017-09-19T10:55:23.328Z,32.00
2017-09-19T10:57:50.131Z,33.13
2017-09-19T11:00:17.297Z,28.87
2017-09-19T11:02:44.439Z,31.00
2017-09-19T11:05:11.252Z,29.73
2017-09-19T11:07:38.076Z,30.67
2017-09-19T11:10:04.928Z,32.13
2017-09-19T11:12:31.760Z,24.73
2017-09-19T11:14:58.860Z,26.50
2017-09-19T11:17:25.689Z,25.43
2017-09-19T11:19:52.748Z,21.30
2017-09-19T11:22:19.556Z,23.73
2017-09-19T11:24:46.387Z,26.53
2017-09-19T11:27:13.196Z,28.60
2017-09-19T11:29:40.009Z,28.27
2017-09-19T11:32:06.873Z,26.63
2017-09-19T11:34:33.721Z,23.33
2017-09-19T11:37:00.552Z,28.37
2017-09-19T11:39:27.404Z,22.47
2017-09-19T11:41:54.213Z,24.17
2017-09-19T11:44:21.020Z,23.30
2017-09-19T11:46:48.124Z,17.37
2017-09-19T11:49:15.176Z,24.70
2017-09-19T11:51:42.009Z,26.67
2017-09-19T11:54:08.837Z,23.30
2017-09-19T11:56:35.668Z,26.93
2017-09-19T11:59:02.476Z,22.50
2017-09-19T12:01:29.596Z,21.47
2017-09-19T12:03:56.432Z,25.73
2017-09-19T12:06:23.484Z,24.17
2017-09-19T12:08:50.641Z,27.60
2017-09-19T12:11:17.454Z,26.80
2017-09-19T12:13:44.292Z,31.20
2017-09-19T12:16:11.120Z,25.20
2017-09-19T12:18:38.212Z,26.97
2017-09-19T12:21:05.261Z,25.80
2017-09-19T12:23:32.103Z,24.50
2017-09-19T12:25:58.936Z,20.10
2017-09-19T12:28:25.772Z,21.60
2017-09-19T12:30:52.628Z,21.67
2017-09-19T12:33:19.457Z,21.80
2017-09-19T12:35:46.525Z,21.33
2017-09-19T12:38:13.383Z,22.40
2017-09-19T12:40:40.183Z,21.30
2017-09-19T12:43:07.013Z,20.90
2017-09-19T12:45:33.870Z,21.50
2017-09-19T12:48:00.952Z,18.63
2017-09-19T12:50:27.776Z,17.10
2017-09-19T12:52:54.618Z,17.53
2017-09-19T12:55:21.469Z,18.80
2017-09-19T12:57:48.527Z,20.93
2017-09-19T13:03:00.327Z,16.83
2017-09-19T13:05:27.488Z,15.00
2017-09-19T13:07:54.320Z,15.47
2017-09-19T13:10:21.144Z,11.57
2017-09-19T13:12:48.177Z,17.50
2017-09-19T13:15:14.985Z,15.50
2017-09-19T13:17:42.112Z,13.70
2017-09-19T13:20:08.940Z,15.67
2017-09-19T13:22:35.765Z,16.20
2017-09-19T13:25:02.612Z,13.40
2017-09-19T13:27:29.683Z,14.87
2017-09-19T13:29:57.070Z,15.57
2017-09-19T13:32:29.784Z,14.67
2017-09-19T13:34:56.872Z,12.90
2017-09-19T13:37:23.704Z,14.47
2017-09-19T13:39:50.565Z,17.43
2017-09-19T13:42:17.605Z,12.60
2017-09-19T13:44:44.408Z,17.70
2017-09-19T13:47:11.268Z,14.33
2017-09-19T13:49:38.076Z,17.53
2017-09-19T13:52:04.880Z,15.40
2017-09-19T13:57:11.113Z,17.33
2017-09-19T13:59:37.970Z,21.70
2017-09-19T14:04:49.111Z,15.70
2017-09-19T14:07:15.992Z,20.17
2017-09-19T14:09:43.029Z,14.33
2017-09-19T14:12:09.907Z,13.70
2017-09-19T14:14:36.759Z,12.10
2017-09-19T14:17:03.599Z,13.53
2017-09-19T14:19:30.489Z,12.00
2017-09-19T14:21:57.365Z,13.53
2017-09-19T14:27:09.913Z,13.33
2017-09-19T14:29:36.777Z,13.33
2017-09-19T14:32:03.872Z,15.13
2017-09-19T14:34:30.758Z,15.53
2017-09-19T14:36:57.622Z,14.23
2017-09-19T14:39:24.490Z,17.50
2017-09-19T14:41:51.372Z,17.10
2017-09-19T14:44:18.396Z,21.47
2017-09-19T14:46:45.220Z,18.17
2017-09-19T14:49:12.304Z,24.60
2017-09-19T14:51:39.387Z,16.33
2017-09-19T14:54:06.361Z,17.20
2017-09-19T14:56:33.488Z,21.03
2017-09-19T14:59:00.307Z,19.73
2017-09-19T15:01:27.133Z,15.50
2017-09-19T15:03:53.961Z,21.70
2017-09-19T15:06:21.062Z,17.60
2017-09-19T15:08:47.872Z,17.27
2017-09-19T15:11:15.056Z,12.77
2017-09-19T15:13:41.869Z,14.87
2017-09-19T15:16:08.696Z,18.23
2017-09-19T15:18:35.587Z,16.13
2017-09-19T15:21:02.665Z,16.03
2017-09-19T15:23:29.529Z,13.73
2017-09-19T15:25:56.637Z,14.23
2017-09-19T15:28:23.795Z,15.60
2017-09-19T15:30:50.633Z,15.33
2017-09-19T15:33:17.502Z,14.70
2017-09-19T15:35:44.350Z,15.93
2017-09-19T15:38:11.474Z,13.90
2017-09-19T15:40:38.622Z,16.07
2017-09-19T15:43:05.497Z,14.50
2017-09-19T15:45:32.411Z,12.50
2017-09-19T15:47:59.428Z,11.37
2017-09-19T15:50:26.351Z,13.10
2017-09-19T15:52:53.571Z,21.17
2017-09-19T15:55:20.469Z,34.37
2017-09-19T15:57:47.314Z,15.40
2017-09-19T16:00:14.186Z,83.93
2017-09-19T16:02:41.105Z,37.90
2017-09-19T16:05:08.905Z,16.87
2017-09-19T16:07:36.148Z,13.80
2017-09-19T16:10:03.037Z,13.43
2017-09-19T16:12:30.242Z,21.40
2017-09-19T16:14:57.106Z,15.10
2017-09-19T16:17:23.971Z,15.50
2017-09-19T16:19:50.845Z,17.40
2017-09-19T16:22:18.021Z,15.83
2017-09-19T16:24:44.903Z,14.57
2017-09-19T16:27:11.757Z,15.30
2017-09-19T16:29:38.839Z,13.13
2017-09-19T16:32:05.979Z,12.70
2017-09-19T16:34:33.004Z,14.77
2017-09-19T16:36:59.899Z,15.23
2017-09-19T16:39:26.826Z,13.23
2017-09-19T16:41:53.705Z,17.07
2017-09-19T16:44:20.574Z,15.37
2017-09-19T16:46:47.724Z,15.97
2017-09-19T16:49:15.137Z,15.63
2017-09-19T16:51:42.869Z,16.67
2017-09-19T16:54:09.937Z,23.30
2017-09-19T16:56:37.009Z,15.90
2017-09-19T16:59:04.037Z,17.27
2017-09-19T17:01:31.202Z,16.73
2017-09-19T17:03:58.102Z,13.83
2017-09-19T17:06:25.473Z,15.13
2017-09-19T17:08:54.146Z,17.47
2017-09-19T17:11:21.095Z,18.30
2017-09-19T17:13:47.954Z,13.80
2017-09-19T17:16:14.869Z,13.33
2017-09-19T17:18:41.966Z,14.10
2017-09-19T17:21:08.874Z,14.40
2017-09-19T17:23:35.738Z,15.40
2017-09-19T17:26:02.613Z,12.93
2017-09-19T17:28:29.445Z,16.00
2017-09-19T17:30:56.350Z,17.03
2017-09-19T17:33:23.222Z,14.77
2017-09-19T17:35:50.063Z,17.00
2017-09-19T17:38:16.949Z,14.63
2017-09-19T17:40:43.793Z,12.90
2017-09-19T17:43:10.909Z,14.43
2017-09-19T17:45:37.803Z,13.37
2017-09-19T17:48:04.654Z,13.20
2017-09-19T17:50:31.485Z,12.07
2017-09-19T17:52:58.350Z,14.10
2017-09-19T17:55:25.210Z,13.10
2017-09-19T17:57:52.074Z,18.97
2017-09-19T18:00:19.226Z,16.83
2017-09-19T18:02:46.109Z,16.93
2017-09-19T18:05:12.994Z,14.00
2017-09-19T18:07:39.893Z,15.63
2017-09-19T18:10:06.870Z,12.97
2017-09-19T18:12:33.965Z,20.10
2017-09-19T18:15:00.878Z,17.93
2017-09-19T18:17:27.757Z,12.90
2017-09-19T18:19:55.262Z,15.17
2017-09-19T18:22:22.211Z,16.17
2017-09-19T18:24:50.047Z,24.57
2017-09-19T18:27:16.942Z,14.90
2017-09-19T18:29:43.886Z,15.03
2017-09-19T18:32:11.050Z,26.10
2017-09-19T18:34:37.941Z,14.17
2017-09-19T18:37:04.827Z,16.00
2017-09-19T18:39:32.216Z,17.53
2017-09-19T18:41:59.087Z,19.83
2017-09-19T18:44:26.037Z,21.23
2017-09-19T18:46:52.902Z,17.20
2017-09-19T18:49:20.077Z,18.87
2017-09-19T18:51:46.981Z,17.73
2017-09-19T18:54:13.858Z,25.53
2017-09-19T18:56:40.706Z,25.67
2017-09-19T18:59:07.615Z,20.50
2017-09-19T19:01:34.809Z,24.93
2017-09-19T19:04:01.954Z,22.03
2017-09-19T19:06:29.045Z,21.80
2017-09-19T19:08:55.906Z,23.13
2017-09-19T19:11:22.993Z,21.60
2017-09-19T19:13:49.879Z,21.83
2017-09-19T19:16:16.718Z,21.40
2017-09-19T19:18:43.583Z,25.00
2017-09-19T19:21:10.486Z,23.53
2017-09-19T19:23:37.374Z,20.07
2017-09-19T19:26:04.245Z,22.53
2017-09-19T19:28:32.014Z,21.30
2017-09-19T19:30:58.873Z,20.53
2017-09-19T19:33:25.805Z,24.67
2017-09-19T19:35:52.689Z,18.53
2017-09-19T19:38:19.567Z,20.93
2017-09-19T19:40:46.413Z,20.30
2017-09-19T19:43:13.270Z,23.17
2017-09-19T19:45:40.133Z,24.17
2017-09-19T19:48:07.153Z,22.93
2017-09-19T19:50:34.329Z,24.70
2017-09-19T19:53:01.198Z,19.83
2017-09-19T19:55:28.318Z,32.93
2017-09-19T19:57:55.194Z,28.23
2017-09-19T20:00:22.085Z,23.77
2017-09-19T20:02:49.000Z,27.10
2017-09-19T20:05:15.881Z,32.30
2017-09-19T20:07:42.745Z,25.73
2017-09-19T20:10:09.588Z,27.87
2017-09-19T20:12:36.497Z,24.10
2017-09-19T20:15:03.362Z,26.60
2017-09-19T20:17:30.433Z,31.80
2017-09-19T20:19:57.342Z,31.37
2017-09-19T20:22:24.218Z,30.17
2017-09-19T20:24:51.094Z,28.10
2017-09-19T20:27:18.205Z,27.83
2017-09-19T20:29:45.044Z,30.53
2017-09-19T20:32:11.894Z,30.27
2017-09-19T20:34:39.037Z,38.97
2017-09-19T20:37:05.874Z,27.70
2017-09-19T20:39:32.718Z,42.00
2017-09-19T20:41:59.587Z,28.17
2017-09-19T20:44:26.457Z,33.70
2017-09-19T20:46:53.557Z,27.13
2017-09-19T20:49:20.425Z,33.97
2017-09-19T20:51:47.275Z,23.50
2017-09-19T20:54:14.116Z,37.57
2017-09-19T20:56:41.010Z,25.43
2017-09-19T20:59:07.851Z,23.93
2017-09-19T21:01:34.707Z,21.73
2017-09-19T21:04:01.635Z,19.27
2017-09-19T21:06:28.478Z,21.93
2017-09-19T21:08:55.329Z,25.00
2017-09-19T21:11:22.505Z,26.73
2017-09-19T21:13:49.385Z,23.53
2017-09-19T21:16:17.367Z,19.97
2017-09-19T21:18:46.138Z,23.00
2017-09-19T21:21:12.997Z,23.77
2017-09-19T21:23:40.102Z,20.07
2017-09-19T21:26:07.214Z,23.57
2017-09-19T21:28:34.309Z,21.60
2017-09-19T21:31:01.185Z,17.03
2017-09-19T21:33:28.389Z,18.40
2017-09-19T21:35:55.281Z,21.43
2017-09-19T21:38:22.136Z,17.83
2017-09-19T21:40:49.017Z,15.70
2017-09-19T21:43:15.869Z,18.40
2017-09-19T21:45:42.708Z,18.83
2017-09-19T21:48:09.861Z,19.20
2017-09-19T21:50:37.114Z,21.50
2017-09-19T21:53:03.970Z,15.03
2017-09-19T21:55:30.825Z,19.70
2017-09-19T21:57:57.952Z,14.90
2017-09-19T22:00:24.786Z,14.50
2017-09-19T22:02:51.719Z,11.97
2017-09-19T22:05:18.564Z,13.57
2017-09-19T22:07:45.733Z,15.03
2017-09-19T22:10:12.633Z,17.03
2017-09-19T22:12:39.833Z,14.60
2017-09-19T22:15:06.686Z,14.90
2017-09-19T22:17:33.654Z,12.00
2017-09-19T22:20:00.522Z,13.57
2017-09-19T22:22:27.607Z,10.50
2017-09-19T22:24:54.498Z,11.80
2017-09-19T22:27:21.385Z,9.47
2017-09-19T22:29:48.247Z,13.83
2017-09-19T22:32:15.094Z,9.40
2017-09-19T22:34:41.957Z,9.73
2017-09-19T22:37:08.781Z,11.13
2017-09-19T22:39:35.887Z,9.37
2017-09-19T22:42:02.750Z,10.27
2017-09-19T22:44:29.608Z,8.20
2017-09-19T22:46:56.505Z,8.33
2017-09-19T22:49:23.357Z,9.07
2017-09-19T22:51:50.185Z,9.60
2017-09-19T22:54:17.281Z,9.40
2017-09-19T22:56:44.117Z,7.53
2017-09-19T22:59:10.969Z,12.80
2017-09-19T23:01:37.833Z,10.00
2017-09-19T23:04:04.745Z,7.10
2017-09-19T23:06:31.619Z,14.23
2017-09-19T23:08:58.507Z,7.30
2017-09-19T23:11:25.342Z,7.23
2017-09-19T23:13:52.174Z,9.03
2017-09-19T23:16:19.042Z,10.30
2017-09-19T23:18:45.905Z,8.47
2017-09-19T23:21:12.774Z,11.00
2017-09-19T23:23:39.915Z,7.57
2017-09-19T23:26:06.769Z,8.60
2017-09-19T23:28:33.645Z,11.27
2017-09-19T23:31:00.498Z,9.17
2017-09-19T23:33:27.698Z,6.67
2017-09-19T23:35:54.521Z,8.83
2017-09-19T23:38:21.689Z,9.30
2017-09-19T23:40:48.518Z,8.60
2017-09-19T23:43:15.686Z,10.67
2017-09-19T23:45:42.596Z,13.80
2017-09-19T23:48:09.443Z,9.80
2017-09-19T23:50:36.262Z,10.70
2017-09-19T23:53:03.162Z,11.57
2017-09-19T23:55:30.257Z,18.07
2017-09-19T23:57:57.117Z,11.13
